createdAt,value
2022-10-17T00:02:21.536Z,87.10
2022-10-17T00:05:02.782Z,87.46
2022-10-17T00:07:32.839Z,87.62
2022-10-17T00:10:02.456Z,87.23
2022-10-17T00:12:29.110Z,87.68
2022-10-17T00:17:54.722Z,87.83
2022-10-17T00:20:32.988Z,88.02
2022-10-17T00:23:08.891Z,88.14
2022-10-17T00:25:38.017Z,88.90
2022-10-17T00:28:08.979Z,88.46
2022-10-17T00:30:39.691Z,88.07
2022-10-17T00:33:09.222Z,88.38
2022-10-17T00:35:38.523Z,88.56
2022-10-17T00:38:07.817Z,88.54
2022-10-17T00:40:34.450Z,88.72
2022-10-17T00:43:03.280Z,88.54
2022-10-17T00:45:31.646Z,88.83
2022-10-17T00:48:08.550Z,88.71
2022-10-17T00:50:36.554Z,88.54
2022-10-17T00:53:06.114Z,89.18
2022-10-17T00:55:58.039Z,88.99
2022-10-17T00:58:24.622Z,89.05
2022-10-17T01:00:51.199Z,88.96
2022-10-17T01:03:19.144Z,88.94
2022-10-17T01:05:46.463Z,88.97
2022-10-17T01:08:15.551Z,89.27
2022-10-17T01:11:03.939Z,89.24
2022-10-17T01:13:37.717Z,89.50
2022-10-17T01:16:42.440Z,89.35
2022-10-17T01:19:29.318Z,89.86
2022-10-17T01:22:19.415Z,89.70
2022-10-17T01:25:17.908Z,89.69
2022-10-17T01:28:07.632Z,89.97
2022-10-17T01:31:12.338Z,90.07
2022-10-17T01:33:47.477Z,90.28
2022-10-17T01:36:37.923Z,90.29
2022-10-17T01:39:45.303Z,90.47
2022-10-17T01:42:29.666Z,90.37
2022-10-17T01:45:35.016Z,90.29
2022-10-17T01:48:08.343Z,90.27
2022-10-17T01:50:45.855Z,90.33
2022-10-17T01:53:16.733Z,90.43
2022-10-17T01:55:44.796Z,90.36
2022-10-17T01:58:20.656Z,90.48
2022-10-17T02:00:48.901Z,90.47
2022-10-17T02:03:18.217Z,90.46
2022-10-17T02:05:50.239Z,90.74
2022-10-17T02:08:29.102Z,90.67
2022-10-17T02:11:21.624Z,91.05
2022-10-17T02:14:09.921Z,90.85
2022-10-17T02:16:37.269Z,91.39
2022-10-17T02:19:27.665Z,91.22
2022-10-17T02:22:09.743Z,91.21
2022-10-17T02:24:36.216Z,91.25
2022-10-17T02:27:46.036Z,90.85
2022-10-17T02:30:44.292Z,90.78
2022-10-17T02:33:17.024Z,91.11
2022-10-17T02:35:50.317Z,90.68
2022-10-17T02:38:28.703Z,90.64
2022-10-17T02:40:59.626Z,91.14
2022-10-17T02:43:28.648Z,91.17
2022-10-17T02:46:03.429Z,91.28
2022-10-17T02:48:47.247Z,91.20
2022-10-17T02:52:05.937Z,91.50
2022-10-17T02:54:41.926Z,91.79
2022-10-17T02:57:34.568Z,91.55
2022-10-17T03:00:02.280Z,91.26
2022-10-17T03:02:29.466Z,91.17
2022-10-17T03:04:59.887Z,91.52
2022-10-17T03:07:29.161Z,91.32
2022-10-17T03:09:55.761Z,91.33
2022-10-17T03:12:22.611Z,91.31
2022-10-17T03:14:57.498Z,91.39
2022-10-17T03:17:32.587Z,91.39
2022-10-17T03:20:04.901Z,91.32
2022-10-17T03:22:31.753Z,91.44
2022-10-17T03:25:00.977Z,92.06
2022-10-17T03:27:27.878Z,92.06
2022-10-17T03:29:59.441Z,91.75
2022-10-17T03:32:30.976Z,91.77
2022-10-17T03:35:01.058Z,91.54
2022-10-17T03:37:36.270Z,92.14
2022-10-17T03:40:03.125Z,92.22
2022-10-17T03:42:32.005Z,92.44
2022-10-17T03:44:58.978Z,92.63
2022-10-17T03:47:25.560Z,92.69
2022-10-17T03:49:54.055Z,92.89
2022-10-17T03:52:20.744Z,93.22
2022-10-17T03:54:54.969Z,92.77
2022-10-17T03:57:21.597Z,92.96
2022-10-17T03:59:48.089Z,92.83
2022-10-17T04:02:20.158Z,92.82
2022-10-17T04:04:49.052Z,92.79
2022-10-17T04:07:17.978Z,92.91
2022-10-17T04:09:46.564Z,92.92
2022-10-17T04:12:16.752Z,92.68
2022-10-17T04:14:45.681Z,92.73
2022-10-17T04:17:17.181Z,92.79
2022-10-17T04:19:43.701Z,93.11
2022-10-17T04:22:11.193Z,93.13
2022-10-17T04:24:37.754Z,93.00
2022-10-17T04:27:04.314Z,92.76
2022-10-17T04:29:32.830Z,92.94
2022-10-17T04:31:59.328Z,92.56
2022-10-17T04:34:25.961Z,92.67
2022-10-17T04:36:52.704Z,92.80
2022-10-17T04:39:19.426Z,92.76
2022-10-17T04:41:46.110Z,92.73
2022-10-17T04:44:15.806Z,92.64
2022-10-17T04:46:42.169Z,93.05
2022-10-17T04:49:10.139Z,92.98
2022-10-17T04:51:40.580Z,92.94
2022-10-17T04:54:07.254Z,92.69
2022-10-17T04:56:39.230Z,92.47
2022-10-17T04:59:09.309Z,92.31
2022-10-17T05:01:35.931Z,92.34
2022-10-17T05:04:02.731Z,92.51
2022-10-17T05:06:33.927Z,92.28
2022-10-17T05:09:00.913Z,92.29
2022-10-17T05:11:30.237Z,92.40
2022-10-17T05:13:58.971Z,92.71
2022-10-17T05:16:26.318Z,92.52
2022-10-17T05:18:58.615Z,92.52
2022-10-17T05:21:34.830Z,92.32
2022-10-17T05:24:01.725Z,92.29
2022-10-17T05:26:36.433Z,92.06
2022-10-17T05:29:05.848Z,92.18
2022-10-17T05:31:32.415Z,92.19
2022-10-17T05:34:08.005Z,92.08
2022-10-17T05:36:39.582Z,91.94
2022-10-17T05:39:08.493Z,92.03
2022-10-17T05:41:35.250Z,91.91
2022-10-17T05:44:06.016Z,91.79
2022-10-17T05:46:32.690Z,92.17
2022-10-17T05:49:01.792Z,92.05
2022-10-17T05:51:28.395Z,92.13
2022-10-17T05:54:00.018Z,92.08
2022-10-17T05:56:28.705Z,92.19
2022-10-17T05:59:01.030Z,92.46
2022-10-17T06:01:27.959Z,92.13
2022-10-17T06:03:54.652Z,92.18
2022-10-17T06:06:21.747Z,91.96
2022-10-17T06:08:50.613Z,92.04
2022-10-17T06:11:17.302Z,91.97
2022-10-17T06:13:44.144Z,92.00
2022-10-17T06:16:10.814Z,91.89
2022-10-17T06:18:37.364Z,91.89
2022-10-17T06:21:05.714Z,91.77
2022-10-17T06:23:32.905Z,92.00
2022-10-17T06:26:09.538Z,92.18
2022-10-17T06:28:36.645Z,92.23
2022-10-17T06:31:13.854Z,92.07
2022-10-17T06:33:40.958Z,92.02
2022-10-17T06:36:09.988Z,92.05
2022-10-17T06:38:36.506Z,92.36
2022-10-17T06:41:13.368Z,92.16
2022-10-17T06:43:47.833Z,92.39
2022-10-17T06:46:18.820Z,92.10
2022-10-17T06:48:46.002Z,92.10
2022-10-17T06:51:15.177Z,92.55
2022-10-17T06:53:50.350Z,92.31
2022-10-17T06:56:20.031Z,92.01
2022-10-17T06:58:47.567Z,92.13
2022-10-17T07:01:14.001Z,92.07
2022-10-17T07:03:41.032Z,91.97
2022-10-17T07:06:07.923Z,91.91
2022-10-17T07:08:34.301Z,92.44
2022-10-17T07:11:38.365Z,91.65
2022-10-17T07:14:10.714Z,92.11
2022-10-17T07:16:46.941Z,92.08
2022-10-17T07:19:15.163Z,91.76
2022-10-17T07:21:41.570Z,91.72
2022-10-17T07:24:08.142Z,91.77
2022-10-17T07:26:34.580Z,91.50
2022-10-17T07:29:01.691Z,91.29
2022-10-17T07:31:28.235Z,91.50
2022-10-17T07:33:54.830Z,91.55
2022-10-17T07:36:21.270Z,91.42
2022-10-17T07:38:47.710Z,91.21
2022-10-17T07:41:17.876Z,91.57
2022-10-17T07:43:47.272Z,91.04
2022-10-17T07:46:13.656Z,91.53
2022-10-17T07:48:40.386Z,91.47
2022-10-17T07:51:08.084Z,91.76
2022-10-17T07:53:42.735Z,91.41
2022-10-17T07:56:12.918Z,91.67
2022-10-17T07:58:40.091Z,91.82
2022-10-17T08:01:14.722Z,92.02
2022-10-17T08:03:44.346Z,92.11
2022-10-17T08:06:10.713Z,92.15
2022-10-17T08:08:37.118Z,92.15
2022-10-17T08:11:06.569Z,92.51
2022-10-17T08:13:33.060Z,92.86
2022-10-17T08:16:04.812Z,92.95
2022-10-17T08:18:31.296Z,93.35
2022-10-17T08:21:02.049Z,93.60
2022-10-17T08:23:28.905Z,94.02
2022-10-17T08:25:55.355Z,94.27
2022-10-17T08:28:21.816Z,94.92
2022-10-17T08:30:48.294Z,95.04
2022-10-17T08:33:14.651Z,94.98
2022-10-17T08:35:41.013Z,94.90
2022-10-17T08:38:09.060Z,95.32
2022-10-17T08:40:42.699Z,95.79
2022-10-17T08:43:38.889Z,96.13
2022-10-17T08:46:06.803Z,96.38
2022-10-17T08:48:42.637Z,96.88
2022-10-17T08:51:28.327Z,96.65
2022-10-17T08:54:06.453Z,97.00
2022-10-17T08:56:49.025Z,96.85
2022-10-17T08:59:24.925Z,97.00
2022-10-17T09:01:56.963Z,97.00
2022-10-17T09:04:26.103Z,96.96
2022-10-17T09:07:28.196Z,96.78
2022-10-17T09:10:01.728Z,96.93
2022-10-17T09:12:42.303Z,97.00
2022-10-17T09:15:20.648Z,96.82
2022-10-17T09:17:54.329Z,96.74
2022-10-17T09:20:28.271Z,96.90
2022-10-17T09:23:13.670Z,96.49
2022-10-17T09:26:03.071Z,96.48
2022-10-17T09:28:32.829Z,96.88
2022-10-17T09:31:16.809Z,96.74
2022-10-17T09:34:00.728Z,96.86
2022-10-17T09:36:34.867Z,96.80
2022-10-17T09:39:24.577Z,96.75
2022-10-17T09:41:56.002Z,96.70
2022-10-17T09:44:32.941Z,96.53
2022-10-17T09:47:23.597Z,96.74
2022-10-17T09:49:50.618Z,96.88
2022-10-17T09:52:22.706Z,96.78
2022-10-17T09:55:00.173Z,96.51
2022-10-17T09:57:26.633Z,96.23
2022-10-17T09:59:55.971Z,96.44
2022-10-17T10:02:24.697Z,96.26
2022-10-17T10:05:05.126Z,95.94
2022-10-17T10:07:36.121Z,96.50
2022-10-17T10:10:05.330Z,96.54
2022-10-17T10:12:34.793Z,96.40
2022-10-17T10:15:01.290Z,96.35
2022-10-17T10:17:29.665Z,96.39
2022-10-17T10:19:56.179Z,96.07
2022-10-17T10:22:25.431Z,96.41
2022-10-17T10:25:08.348Z,96.39
2022-10-17T10:27:35.078Z,96.58
2022-10-17T10:30:01.650Z,96.43
2022-10-17T10:32:35.887Z,96.84
2022-10-17T10:35:23.632Z,96.62
2022-10-17T10:37:52.401Z,96.79
2022-10-17T10:40:52.913Z,96.68
2022-10-17T10:43:34.529Z,96.83
2022-10-17T10:46:01.090Z,96.96
2022-10-17T10:48:34.696Z,96.68
2022-10-17T10:51:03.917Z,97.06
2022-10-17T10:53:45.549Z,96.85
2022-10-17T10:56:24.653Z,96.67
2022-10-17T10:58:57.641Z,96.30
2022-10-17T11:01:30.158Z,96.72
2022-10-17T11:04:05.497Z,95.94
2022-10-17T11:06:36.002Z,96.29
2022-10-17T11:09:10.861Z,95.77
2022-10-17T11:11:55.843Z,95.93
2022-10-17T11:14:36.348Z,95.83
2022-10-17T11:17:30.506Z,95.99
2022-10-17T11:20:26.807Z,96.27
2022-10-17T11:22:57.726Z,96.23
2022-10-17T11:25:33.251Z,96.17
2022-10-17T11:28:04.726Z,96.29
2022-10-17T11:33:18.233Z,96.03
2022-10-17T11:35:46.282Z,95.96
2022-10-17T11:38:18.900Z,96.00
2022-10-17T11:40:49.865Z,96.12
2022-10-17T11:43:35.788Z,95.93
2022-10-17T11:46:06.234Z,95.68
2022-10-17T11:49:12.403Z,95.38
2022-10-17T11:52:04.655Z,95.69
2022-10-17T11:54:49.136Z,95.82
2022-10-17T11:57:46.653Z,95.96
2022-10-17T12:00:27.638Z,96.58
2022-10-17T12:03:03.376Z,96.24
2022-10-17T12:05:54.704Z,96.52
2022-10-17T12:08:29.227Z,97.03
2022-10-17T12:11:15.522Z,96.50
2022-10-17T12:13:54.430Z,96.53
2022-10-17T12:16:20.985Z,97.11
2022-10-17T12:19:12.745Z,96.58
2022-10-17T12:22:06.048Z,96.53
2022-10-17T12:24:39.173Z,96.40
2022-10-17T12:27:24.338Z,96.32
2022-10-17T12:29:51.074Z,96.76
2022-10-17T12:32:22.173Z,96.43
2022-10-17T12:34:59.001Z,96.48
2022-10-17T12:37:57.305Z,96.50
2022-10-17T12:40:37.678Z,96.36
2022-10-17T12:43:16.323Z,96.36
2022-10-17T12:45:52.627Z,96.19
2022-10-17T12:48:34.483Z,96.28
2022-10-17T12:51:34.175Z,96.51
2022-10-17T12:54:37.914Z,96.41
2022-10-17T12:57:52.747Z,96.40
2022-10-17T13:00:22.240Z,96.21
2022-10-17T13:02:50.367Z,95.85
2022-10-17T13:05:24.946Z,95.79
2022-10-17T13:07:51.902Z,95.16
2022-10-17T13:10:24.309Z,94.99
2022-10-17T13:12:54.196Z,95.69
2022-10-17T13:15:21.034Z,95.49
2022-10-17T13:17:56.212Z,95.30
2022-10-17T13:20:29.012Z,95.29
2022-10-17T13:22:58.618Z,94.59
2022-10-17T13:25:27.390Z,94.61
2022-10-17T13:28:05.293Z,94.17
2022-10-17T13:31:05.232Z,94.38
2022-10-17T13:33:33.424Z,94.28
2022-10-17T13:36:01.448Z,94.07
2022-10-17T13:38:32.096Z,93.85
2022-10-17T13:41:10.753Z,93.90
2022-10-17T13:43:45.960Z,94.25
2022-10-17T13:46:36.941Z,93.86
2022-10-17T13:49:37.124Z,94.05
2022-10-17T13:52:05.321Z,93.76
2022-10-17T13:54:40.559Z,93.47
2022-10-17T13:57:17.399Z,93.30
2022-10-17T13:59:44.167Z,93.75
2022-10-17T14:02:16.316Z,93.43
2022-10-17T14:05:15.262Z,93.65
2022-10-17T14:08:10.051Z,93.78
2022-10-17T14:10:34.757Z,93.32
2022-10-17T14:13:01.806Z,93.35
2022-10-17T14:15:46.745Z,93.30
2022-10-17T14:18:19.785Z,93.60
2022-10-17T14:23:44.220Z,93.65
2022-10-17T14:26:21.164Z,92.73
2022-10-17T14:29:14.469Z,93.37
2022-10-17T14:31:40.982Z,93.04
2022-10-17T14:34:22.546Z,92.35
2022-10-17T14:36:51.717Z,91.51
2022-10-17T14:39:20.801Z,90.49
2022-10-17T14:41:47.999Z,89.33
2022-10-17T14:44:32.180Z,86.71
2022-10-17T14:47:30.900Z,87.15
2022-10-17T14:50:02.346Z,85.88
2022-10-17T14:52:30.757Z,87.86
2022-10-17T14:54:58.792Z,88.15
2022-10-17T14:57:31.458Z,88.02
2022-10-17T14:59:59.324Z,88.67
2022-10-17T15:02:28.875Z,88.80
2022-10-17T15:04:55.714Z,89.85
2022-10-17T15:07:22.346Z,89.74
2022-10-17T15:09:51.058Z,89.91
2022-10-17T15:12:20.892Z,90.08
2022-10-17T15:14:51.599Z,90.61
2022-10-17T15:17:25.703Z,90.68
2022-10-17T15:19:52.200Z,90.50
2022-10-17T15:22:19.170Z,90.19
2022-10-17T15:24:46.206Z,89.71
2022-10-17T15:27:18.974Z,90.03
2022-10-17T15:29:45.839Z,90.47
2022-10-17T15:32:12.309Z,90.65
2022-10-17T15:34:38.812Z,90.82
2022-10-17T15:37:06.614Z,91.05
2022-10-17T15:39:33.186Z,90.96
2022-10-17T15:41:59.947Z,91.26
2022-10-17T15:44:26.334Z,90.88
2022-10-17T15:46:53.126Z,91.45
2022-10-17T15:49:19.874Z,91.26
2022-10-17T15:51:46.740Z,91.75
2022-10-17T15:54:14.272Z,91.88
2022-10-17T15:56:42.216Z,91.42
2022-10-17T15:59:14.791Z,92.03
2022-10-17T16:01:41.653Z,92.07
2022-10-17T16:04:14.686Z,91.87
2022-10-17T16:06:44.724Z,91.88
2022-10-17T16:09:11.360Z,91.95
2022-10-17T16:11:39.845Z,91.96
2022-10-17T16:14:15.112Z,92.12
2022-10-17T16:16:46.206Z,92.45
2022-10-17T16:19:12.768Z,92.58
2022-10-17T16:21:40.675Z,92.29
2022-10-17T16:24:10.928Z,92.18
2022-10-17T16:26:37.955Z,92.62
2022-10-17T16:29:04.771Z,92.64
2022-10-17T16:31:34.610Z,92.96
2022-10-17T16:34:01.815Z,92.80
2022-10-17T16:36:28.905Z,92.87
2022-10-17T16:38:55.662Z,93.10
2022-10-17T16:41:29.960Z,93.05
2022-10-17T16:44:00.499Z,92.93
2022-10-17T16:46:28.905Z,93.01
2022-10-17T16:48:55.642Z,93.11
2022-10-17T16:51:22.452Z,93.17
2022-10-17T16:53:50.631Z,93.30
2022-10-17T16:56:19.022Z,93.20
2022-10-17T16:58:45.945Z,93.00
2022-10-17T17:01:17.543Z,92.84
2022-10-17T17:03:46.114Z,92.65
2022-10-17T17:06:19.106Z,92.75
2022-10-17T17:08:45.599Z,93.17
2022-10-17T17:11:13.809Z,93.14
2022-10-17T17:13:41.064Z,93.15
2022-10-17T17:16:12.827Z,93.15
2022-10-17T17:18:39.626Z,93.28
2022-10-17T17:21:07.151Z,93.18
2022-10-17T17:23:35.776Z,92.96
2022-10-17T17:26:05.496Z,93.28
2022-10-17T17:28:32.646Z,93.44
2022-10-17T17:30:59.318Z,92.97
2022-10-17T17:33:30.086Z,93.15
2022-10-17T17:36:00.981Z,93.24
2022-10-17T17:38:31.988Z,92.96
2022-10-17T17:40:58.695Z,93.11
2022-10-17T17:43:25.552Z,92.98
2022-10-17T17:45:52.348Z,92.92
2022-10-17T17:48:18.819Z,93.20
2022-10-17T17:50:45.550Z,93.25
2022-10-17T17:53:13.791Z,93.18
2022-10-17T17:55:40.405Z,93.10
2022-10-17T17:58:08.137Z,92.94
2022-10-17T18:00:35.882Z,93.08
2022-10-17T18:03:02.387Z,92.53
2022-10-17T18:05:28.937Z,92.75
2022-10-17T18:07:55.459Z,93.02
2022-10-17T18:10:21.920Z,93.06
2022-10-17T18:12:48.452Z,93.11
2022-10-17T18:15:14.949Z,93.00
2022-10-17T18:17:41.666Z,92.95
2022-10-17T18:20:08.480Z,93.01
2022-10-17T18:22:35.746Z,93.01
2022-10-17T18:25:02.587Z,93.09
2022-10-17T18:27:28.989Z,93.37
2022-10-17T18:29:55.442Z,92.65
2022-10-17T18:32:21.832Z,92.72
2022-10-17T18:34:48.184Z,92.83
2022-10-17T18:37:14.566Z,92.87
2022-10-17T18:39:41.006Z,92.72
2022-10-17T18:42:07.528Z,92.75
2022-10-17T18:44:33.914Z,92.88
2022-10-17T18:47:03.843Z,92.72
2022-10-17T18:49:30.955Z,93.11
2022-10-17T18:51:57.507Z,92.69
2022-10-17T18:54:24.402Z,92.67
2022-10-17T18:56:52.048Z,93.02
2022-10-17T19:02:50.655Z,92.95
2022-10-17T19:05:17.268Z,92.99
2022-10-17T19:07:43.684Z,92.89
2022-10-17T19:10:10.149Z,92.72
2022-10-17T19:12:36.626Z,93.05
2022-10-17T19:15:03.324Z,93.25
2022-10-17T19:17:30.002Z,93.38
2022-10-17T19:19:56.652Z,93.14
2022-10-17T19:22:23.037Z,93.14
2022-10-17T19:24:49.507Z,93.29
2022-10-17T19:27:15.905Z,93.10
2022-10-17T19:29:43.924Z,93.21
2022-10-17T19:32:20.633Z,93.19
2022-10-17T19:34:54.485Z,93.39
2022-10-17T19:37:20.989Z,93.06
2022-10-17T19:39:48.935Z,93.00
2022-10-17T19:42:15.436Z,92.99
2022-10-17T19:44:41.805Z,92.83
2022-10-17T19:47:08.164Z,92.75
2022-10-17T19:49:34.686Z,92.84
2022-10-17T19:52:01.193Z,92.94
2022-10-17T19:54:27.656Z,93.09
2022-10-17T19:56:54.035Z,92.73
2022-10-17T19:59:20.478Z,93.01
2022-10-17T20:01:47.006Z,93.00
2022-10-17T20:04:13.645Z,92.68
2022-10-17T20:06:40.843Z,92.72
2022-10-17T20:09:09.942Z,92.69
2022-10-17T20:11:39.017Z,92.58
2022-10-17T20:14:06.692Z,92.47
2022-10-17T20:16:35.980Z,92.60
2022-10-17T20:19:08.328Z,92.69
2022-10-17T20:21:36.488Z,92.82
2022-10-17T20:24:05.302Z,92.77
2022-10-17T20:26:38.238Z,93.20
2022-10-17T20:29:12.114Z,92.98
2022-10-17T20:31:40.136Z,93.10
2022-10-17T20:34:06.543Z,93.33
2022-10-17T20:36:36.793Z,93.20
2022-10-17T20:39:03.916Z,93.03
2022-10-17T20:41:30.317Z,93.02
2022-10-17T20:43:56.784Z,93.38
2022-10-17T20:46:36.521Z,93.64
2022-10-17T20:49:05.835Z,93.41
2022-10-17T20:51:32.550Z,93.22
2022-10-17T20:53:58.927Z,93.54
2022-10-17T20:56:27.389Z,93.15
2022-10-17T20:58:58.790Z,93.15
2022-10-17T21:01:25.975Z,92.97
2022-10-17T21:03:52.847Z,93.10
2022-10-17T21:06:19.898Z,93.10
2022-10-17T21:08:47.253Z,93.10
2022-10-17T21:11:16.290Z,93.06
2022-10-17T21:13:43.072Z,93.28
2022-10-17T21:16:15.687Z,92.90
2022-10-17T21:18:42.558Z,93.21
2022-10-17T21:21:15.932Z,93.44
2022-10-17T21:23:43.781Z,93.58
2022-10-17T21:26:12.539Z,93.77
2022-10-17T21:28:43.303Z,93.30
2022-10-17T21:31:11.106Z,93.32
2022-10-17T21:33:37.504Z,93.02
2022-10-17T21:36:04.475Z,93.12
2022-10-17T21:38:30.845Z,93.04
2022-10-17T21:40:57.348Z,92.93
2022-10-17T21:43:24.024Z,93.19
2022-10-17T21:45:50.840Z,93.10
2022-10-17T21:48:17.188Z,92.76
2022-10-17T21:50:43.605Z,92.80
2022-10-17T21:53:10.019Z,92.59
2022-10-17T21:55:37.453Z,92.53
2022-10-17T21:58:04.815Z,92.58
2022-10-17T22:00:31.204Z,93.02
2022-10-17T22:02:57.638Z,93.11
2022-10-17T22:05:24.116Z,93.14
2022-10-17T22:07:50.521Z,92.81
2022-10-17T22:10:16.973Z,92.84
2022-10-17T22:12:43.393Z,92.63
2022-10-17T22:15:09.833Z,92.67
2022-10-17T22:17:36.258Z,92.51
2022-10-17T22:20:02.628Z,92.55
2022-10-17T22:22:30.173Z,92.31
2022-10-17T22:24:56.560Z,92.52
2022-10-17T22:27:23.008Z,92.63
2022-10-17T22:29:49.381Z,92.90
2022-10-17T22:32:19.973Z,93.18
2022-10-17T22:34:48.792Z,93.10
2022-10-17T22:37:15.198Z,92.93
2022-10-17T22:39:41.561Z,92.75
2022-10-17T22:42:07.958Z,92.63
2022-10-17T22:44:34.337Z,92.66
2022-10-17T22:47:00.742Z,92.49
2022-10-17T22:49:27.173Z,92.23
2022-10-17T22:51:53.533Z,92.31
2022-10-17T22:54:19.891Z,92.24
2022-10-17T22:56:46.376Z,92.33
2022-10-17T22:59:12.774Z,92.13
2022-10-17T23:01:39.186Z,92.19
2022-10-17T23:04:05.617Z,92.68
2022-10-17T23:06:31.995Z,92.34
2022-10-17T23:08:58.734Z,92.32
2022-10-17T23:11:25.129Z,92.13
2022-10-17T23:13:51.488Z,92.41
2022-10-17T23:16:17.936Z,92.12
2022-10-17T23:18:44.373Z,91.95
2022-10-17T23:21:10.765Z,91.95
2022-10-17T23:23:37.317Z,92.45
2022-10-17T23:26:05.729Z,92.69
2022-10-17T23:28:33.562Z,92.92
2022-10-17T23:31:14.712Z,93.01
2022-10-17T23:33:41.732Z,93.64
2022-10-17T23:36:10.734Z,93.87
2022-10-17T23:38:41.587Z,93.89
2022-10-17T23:41:11.147Z,93.70
2022-10-17T23:43:37.665Z,93.74
2022-10-17T23:46:05.209Z,93.73
2022-10-17T23:48:31.667Z,93.99
2022-10-17T23:50:58.065Z,94.02
2022-10-17T23:53:24.950Z,93.98
2022-10-17T23:55:51.338Z,94.21
2022-10-17T23:58:17.835Z,93.74
